sensor_id;sensor_type;location;lat;lon;timestamp;P1;durP1;ratioP1;P2;durP2;ratioP2
15096;SDS011;7649;52.084;7.478;2024-01-07T00:01:45;16.37;;;13.60;;
15096;SDS011;7649;52.084;7.478;2024-01-07T00:04:15;18.90;;;14.17;;
15096;SDS011;7649;52.084;7.478;2024-01-07T00:06:45;17.47;;;13.40;;
15096;SDS011;7649;52.084;7.478;2024-01-07T00:09:15;15.53;;;13.13;;
15096;SDS011;7649;52.084;7.478;2024-01-07T00:11:44;17.47;;;14.03;;
15096;SDS011;7649;52.084;7.478;2024-01-07T00:14:15;17.03;;;14.00;;
15096;SDS011;7649;52.084;7.478;2024-01-07T00:16:43;17.60;;;13.27;;
15096;SDS011;7649;52.084;7.478;2024-01-07T00:19:12;16.57;;;13.37;;
15096;SDS011;7649;52.084;7.478;2024-01-07T00:21:41;17.33;;;13.73;;
15096;SDS011;7649;52.084;7.478;2024-01-07T00:24:11;17.57;;;13.50;;
15096;SDS011;7649;52.084;7.478;2024-01-07T00:26:40;16.10;;;13.83;;
15096;SDS011;7649;52.084;7.478;2024-01-07T00:29:08;14.43;;;12.10;;
15096;SDS011;7649;52.084;7.478;2024-01-07T00:31:37;16.33;;;13.23;;
15096;SDS011;7649;52.084;7.478;2024-01-07T00:34:06;14.30;;;12.20;;
15096;SDS011;7649;52.084;7.478;2024-01-07T00:36:37;14.10;;;11.20;;
15096;SDS011;7649;52.084;7.478;2024-01-07T00:39:05;13.73;;;11.17;;
15096;SDS011;7649;52.084;7.478;2024-01-07T00:41:35;11.63;;;10.43;;
15096;SDS011;7649;52.084;7.478;2024-01-07T00:44:04;13.43;;;10.97;;
15096;SDS011;7649;52.084;7.478;2024-01-07T00:46:34;13.50;;;10.47;;
15096;SDS011;7649;52.084;7.478;2024-01-07T00:49:03;11.30;;;10.10;;
15096;SDS011;7649;52.084;7.478;2024-01-07T00:51:31;13.53;;;10.30;;
15096;SDS011;7649;52.084;7.478;2024-01-07T00:54:00;11.60;;;10.13;;
15096;SDS011;7649;52.084;7.478;2024-01-07T00:56:29;11.93;;;10.57;;
15096;SDS011;7649;52.084;7.478;2024-01-07T00:58:59;11.73;;;9.40;;
15096;SDS011;7649;52.084;7.478;2024-01-07T01:01:28;11.23;;;10.03;;
15096;SDS011;7649;52.084;7.478;2024-01-07T01:03:57;11.47;;;9.83;;
15096;SDS011;7649;52.084;7.478;2024-01-07T01:06:25;12.63;;;10.63;;
15096;SDS011;7649;52.084;7.478;2024-01-07T01:08:55;11.80;;;9.73;;
15096;SDS011;7649;52.084;7.478;2024-01-07T01:11:23;11.13;;;9.30;;
15096;SDS011;7649;52.084;7.478;2024-01-07T01:13:51;10.73;;;9.30;;
15096;SDS011;7649;52.084;7.478;2024-01-07T01:16:21;12.30;;;10.07;;
15096;SDS011;7649;52.084;7.478;2024-01-07T01:18:51;10.67;;;9.57;;
15096;SDS011;7649;52.084;7.478;2024-01-07T01:21:19;12.63;;;9.87;;
15096;SDS011;7649;52.084;7.478;2024-01-07T01:23:48;11.23;;;9.70;;
15096;SDS011;7649;52.084;7.478;2024-01-07T01:26:17;11.43;;;9.70;;
15096;SDS011;7649;52.084;7.478;2024-01-07T01:28:45;11.63;;;10.43;;
15096;SDS011;7649;52.084;7.478;2024-01-07T01:31:14;13.60;;;10.47;;
15096;SDS011;7649;52.084;7.478;2024-01-07T01:33:44;11.23;;;10.03;;
15096;SDS011;7649;52.084;7.478;2024-01-07T01:36:13;12.27;;;9.70;;
15096;SDS011;7649;52.084;7.478;2024-01-07T01:38:42;11.10;;;9.47;;
15096;SDS011;7649;52.084;7.478;2024-01-07T01:41:11;11.37;;;10.23;;
15096;SDS011;7649;52.084;7.478;2024-01-07T01:43:39;11.73;;;10.10;;
15096;SDS011;7649;52.084;7.478;2024-01-07T01:46:08;14.80;;;10.17;;
15096;SDS011;7649;52.084;7.478;2024-01-07T01:48:36;12.87;;;9.90;;
15096;SDS011;7649;52.084;7.478;2024-01-07T01:51:07;11.40;;;9.87;;
15096;SDS011;7649;52.084;7.478;2024-01-07T01:53:36;11.60;;;10.13;;
15096;SDS011;7649;52.084;7.478;2024-01-07T01:56:05;12.90;;;9.80;;
15096;SDS011;7649;52.084;7.478;2024-01-07T01:58:34;11.87;;;10.67;;
15096;SDS011;7649;52.084;7.478;2024-01-07T02:01:03;11.90;;;9.73;;
15096;SDS011;7649;52.084;7.478;2024-01-07T02:03:33;12.70;;;9.90;;
15096;SDS011;7649;52.084;7.478;2024-01-07T02:06:02;12.17;;;10.27;;
15096;SDS011;7649;52.084;7.478;2024-01-07T02:08:32;11.23;;;10.03;;
15096;SDS011;7649;52.084;7.478;2024-01-07T02:11:13;11.83;;;9.63;;
15096;SDS011;7649;52.084;7.478;2024-01-07T02:13:42;12.20;;;9.67;;
15096;SDS011;7649;52.084;7.478;2024-01-07T02:16:10;11.43;;;9.83;;
15096;SDS011;7649;52.084;7.478;2024-01-07T02:18:40;12.17;;;10.30;;
15096;SDS011;7649;52.084;7.478;2024-01-07T02:21:09;12.33;;;10.17;;
15096;SDS011;7649;52.084;7.478;2024-01-07T02:23:39;11.37;;;9.93;;
15096;SDS011;7649;52.084;7.478;2024-01-07T02:26:08;10.70;;;9.43;;
15096;SDS011;7649;52.084;7.478;2024-01-07T02:28:37;10.90;;;9.80;;
15096;SDS011;7649;52.084;7.478;2024-01-07T02:31:05;11.13;;;9.57;;
15096;SDS011;7649;52.084;7.478;2024-01-07T02:33:33;10.50;;;9.23;;
15096;SDS011;7649;52.084;7.478;2024-01-07T02:36:02;11.70;;;9.80;;
15096;SDS011;7649;52.084;7.478;2024-01-07T02:38:30;10.43;;;9.37;;
15096;SDS011;7649;52.084;7.478;2024-01-07T02:40:59;10.80;;;9.60;;
15096;SDS011;7649;52.084;7.478;2024-01-07T02:43:28;10.83;;;9.30;;
15096;SDS011;7649;52.084;7.478;2024-01-07T02:45:57;11.00;;;9.67;;
15096;SDS011;7649;52.084;7.478;2024-01-07T02:48:25;11.27;;;9.90;;
15096;SDS011;7649;52.084;7.478;2024-01-07T02:50:53;11.30;;;9.83;;
15096;SDS011;7649;52.084;7.478;2024-01-07T02:53:22;11.20;;;9.93;;
15096;SDS011;7649;52.084;7.478;2024-01-07T02:55:50;10.80;;;9.70;;
15096;SDS011;7649;52.084;7.478;2024-01-07T02:58:18;11.50;;;10.13;;
15096;SDS011;7649;52.084;7.478;2024-01-07T03:00:48;10.50;;;9.47;;
15096;SDS011;7649;52.084;7.478;2024-01-07T03:03:16;12.80;;;10.87;;
15096;SDS011;7649;52.084;7.478;2024-01-07T03:05:45;12.57;;;9.60;;
15096;SDS011;7649;52.084;7.478;2024-01-07T03:08:13;13.47;;;10.20;;
15096;SDS011;7649;52.084;7.478;2024-01-07T03:10:41;11.33;;;10.13;;
15096;SDS011;7649;52.084;7.478;2024-01-07T03:13:10;12.90;;;11.37;;
15096;SDS011;7649;52.084;7.478;2024-01-07T03:15:39;12.67;;;9.97;;
15096;SDS011;7649;52.084;7.478;2024-01-07T03:18:08;13.63;;;10.27;;
15096;SDS011;7649;52.084;7.478;2024-01-07T03:20:37;11.83;;;10.30;;
15096;SDS011;7649;52.084;7.478;2024-01-07T03:23:05;11.90;;;10.67;;
15096;SDS011;7649;52.084;7.478;2024-01-07T03:25:34;12.23;;;10.77;;
15096;SDS011;7649;52.084;7.478;2024-01-07T03:28:02;11.63;;;10.40;;
15096;SDS011;7649;52.084;7.478;2024-01-07T03:30:31;10.70;;;9.60;;
15096;SDS011;7649;52.084;7.478;2024-01-07T03:32:59;11.17;;;9.97;;
15096;SDS011;7649;52.084;7.478;2024-01-07T03:35:29;10.93;;;9.83;;
15096;SDS011;7649;52.084;7.478;2024-01-07T03:37:57;10.97;;;9.73;;
15096;SDS011;7649;52.084;7.478;2024-01-07T03:40:25;12.10;;;9.87;;
15096;SDS011;7649;52.084;7.478;2024-01-07T03:42:54;11.13;;;9.90;;
15096;SDS011;7649;52.084;7.478;2024-01-07T03:45:22;10.40;;;9.40;;
15096;SDS011;7649;52.084;7.478;2024-01-07T03:47:50;11.83;;;9.77;;
15096;SDS011;7649;52.084;7.478;2024-01-07T03:50:19;11.57;;;10.10;;
15096;SDS011;7649;52.084;7.478;2024-01-07T03:52:48;11.97;;;9.83;;
15096;SDS011;7649;52.084;7.478;2024-01-07T03:55:17;11.23;;;10.00;;
15096;SDS011;7649;52.084;7.478;2024-01-07T03:57:45;11.27;;;9.60;;
15096;SDS011;7649;52.084;7.478;2024-01-07T04:00:14;12.97;;;9.43;;
15096;SDS011;7649;52.084;7.478;2024-01-07T04:02:42;11.60;;;10.37;;
15096;SDS011;7649;52.084;7.478;2024-01-07T04:05:11;11.70;;;10.13;;
15096;SDS011;7649;52.084;7.478;2024-01-07T04:07:41;12.50;;;9.87;;
15096;SDS011;7649;52.084;7.478;2024-01-07T04:10:10;12.47;;;10.40;;
15096;SDS011;7649;52.084;7.478;2024-01-07T04:12:39;12.90;;;11.27;;
15096;SDS011;7649;52.084;7.478;2024-01-07T04:15:07;11.53;;;9.60;;
15096;SDS011;7649;52.084;7.478;2024-01-07T04:17:36;11.93;;;10.13;;
15096;SDS011;7649;52.084;7.478;2024-01-07T04:20:05;11.80;;;10.37;;
15096;SDS011;7649;52.084;7.478;2024-01-07T04:22:33;11.17;;;9.67;;
15096;SDS011;7649;52.084;7.478;2024-01-07T04:25:02;11.83;;;9.87;;
15096;SDS011;7649;52.084;7.478;2024-01-07T04:27:33;12.87;;;9.93;;
15096;SDS011;7649;52.084;7.478;2024-01-07T04:30:01;10.77;;;9.67;;
15096;SDS011;7649;52.084;7.478;2024-01-07T04:32:29;11.93;;;10.00;;
15096;SDS011;7649;52.084;7.478;2024-01-07T04:34:58;11.83;;;10.07;;
15096;SDS011;7649;52.084;7.478;2024-01-07T04:37:27;12.33;;;10.17;;
15096;SDS011;7649;52.084;7.478;2024-01-07T04:39:55;11.30;;;9.87;;
15096;SDS011;7649;52.084;7.478;2024-01-07T04:42:23;11.63;;;10.07;;
15096;SDS011;7649;52.084;7.478;2024-01-07T04:44:53;12.97;;;10.23;;
15096;SDS011;7649;52.084;7.478;2024-01-07T04:47:28;11.67;;;9.83;;
15096;SDS011;7649;52.084;7.478;2024-01-07T04:49:57;12.37;;;9.97;;
15096;SDS011;7649;52.084;7.478;2024-01-07T04:52:25;10.17;;;8.83;;
15096;SDS011;7649;52.084;7.478;2024-01-07T04:54:54;10.20;;;8.90;;
15096;SDS011;7649;52.084;7.478;2024-01-07T04:57:23;10.27;;;9.13;;
15096;SDS011;7649;52.084;7.478;2024-01-07T04:59:51;12.17;;;9.43;;
15096;SDS011;7649;52.084;7.478;2024-01-07T05:02:21;11.07;;;9.00;;
15096;SDS011;7649;52.084;7.478;2024-01-07T05:04:49;10.50;;;9.20;;
15096;SDS011;7649;52.084;7.478;2024-01-07T05:07:17;11.70;;;9.10;;
15096;SDS011;7649;52.084;7.478;2024-01-07T05:09:46;9.97;;;8.97;;
15096;SDS011;7649;52.084;7.478;2024-01-07T05:12:14;11.30;;;8.90;;
15096;SDS011;7649;52.084;7.478;2024-01-07T05:14:42;10.30;;;8.50;;
15096;SDS011;7649;52.084;7.478;2024-01-07T05:17:12;11.00;;;8.60;;
15096;SDS011;7649;52.084;7.478;2024-01-07T05:19:42;11.07;;;9.17;;
15096;SDS011;7649;52.084;7.478;2024-01-07T05:22:10;9.10;;;7.90;;
15096;SDS011;7649;52.084;7.478;2024-01-07T05:24:39;9.40;;;8.00;;
15096;SDS011;7649;52.084;7.478;2024-01-07T05:27:07;9.60;;;8.63;;
15096;SDS011;7649;52.084;7.478;2024-01-07T05:29:36;12.97;;;8.87;;
15096;SDS011;7649;52.084;7.478;2024-01-07T05:32:05;10.27;;;8.43;;
15096;SDS011;7649;52.084;7.478;2024-01-07T05:34:34;9.30;;;8.27;;
15096;SDS011;7649;52.084;7.478;2024-01-07T05:40:09;10.63;;;8.33;;
15096;SDS011;7649;52.084;7.478;2024-01-07T05:42:38;9.63;;;8.63;;
15096;SDS011;7649;52.084;7.478;2024-01-07T05:45:06;10.20;;;8.27;;
15096;SDS011;7649;52.084;7.478;2024-01-07T05:47:35;9.17;;;8.27;;
15096;SDS011;7649;52.084;7.478;2024-01-07T05:50:03;9.10;;;8.20;;
15096;SDS011;7649;52.084;7.478;2024-01-07T05:52:32;8.93;;;8.03;;
15096;SDS011;7649;52.084;7.478;2024-01-07T05:55:00;9.30;;;8.30;;
15096;SDS011;7649;52.084;7.478;2024-01-07T05:57:30;10.53;;;8.90;;
15096;SDS011;7649;52.084;7.478;2024-01-07T05:59:58;12.07;;;8.30;;
15096;SDS011;7649;52.084;7.478;2024-01-07T06:02:27;11.53;;;8.80;;
15096;SDS011;7649;52.084;7.478;2024-01-07T06:04:55;9.50;;;8.10;;
15096;SDS011;7649;52.084;7.478;2024-01-07T06:07:24;9.57;;;8.57;;
15096;SDS011;7649;52.084;7.478;2024-01-07T06:09:52;10.93;;;8.30;;
15096;SDS011;7649;52.084;7.478;2024-01-07T06:12:21;8.97;;;7.63;;
15096;SDS011;7649;52.084;7.478;2024-01-07T06:17:49;8.97;;;7.10;;
15096;SDS011;7649;52.084;7.478;2024-01-07T06:20:18;8.20;;;7.37;;
15096;SDS011;7649;52.084;7.478;2024-01-07T06:22:46;7.53;;;6.70;;
15096;SDS011;7649;52.084;7.478;2024-01-07T06:25:15;8.03;;;7.23;;
15096;SDS011;7649;52.084;7.478;2024-01-07T06:27:43;9.33;;;7.57;;
15096;SDS011;7649;52.084;7.478;2024-01-07T06:30:12;8.13;;;7.30;;
15096;SDS011;7649;52.084;7.478;2024-01-07T06:32:41;9.00;;;7.80;;
15096;SDS011;7649;52.084;7.478;2024-01-07T06:35:11;9.53;;;7.30;;
15096;SDS011;7649;52.084;7.478;2024-01-07T06:37:39;7.90;;;7.20;;
15096;SDS011;7649;52.084;7.478;2024-01-07T06:40:08;7.50;;;6.70;;
15096;SDS011;7649;52.084;7.478;2024-01-07T06:42:37;7.33;;;6.60;;
15096;SDS011;7649;52.084;7.478;2024-01-07T06:45:07;8.70;;;7.47;;
15096;SDS011;7649;52.084;7.478;2024-01-07T06:47:36;7.77;;;6.97;;
15096;SDS011;7649;52.084;7.478;2024-01-07T06:50:04;9.73;;;6.50;;
15096;SDS011;7649;52.084;7.478;2024-01-07T06:52:34;8.07;;;7.27;;
15096;SDS011;7649;52.084;7.478;2024-01-07T06:55:03;8.67;;;6.90;;
15096;SDS011;7649;52.084;7.478;2024-01-07T06:57:31;6.47;;;5.80;;
15096;SDS011;7649;52.084;7.478;2024-01-07T07:00:00;7.10;;;6.10;;
15096;SDS011;7649;52.084;7.478;2024-01-07T07:02:28;7.80;;;6.80;;
15096;SDS011;7649;52.084;7.478;2024-01-07T07:04:56;6.50;;;5.90;;
15096;SDS011;7649;52.084;7.478;2024-01-07T07:07:25;8.10;;;6.03;;
15096;SDS011;7649;52.084;7.478;2024-01-07T07:09:54;6.43;;;5.83;;
15096;SDS011;7649;52.084;7.478;2024-01-07T07:12:23;6.83;;;6.13;;
15096;SDS011;7649;52.084;7.478;2024-01-07T07:14:51;6.30;;;5.70;;
15096;SDS011;7649;52.084;7.478;2024-01-07T07:17:20;6.60;;;5.70;;
15096;SDS011;7649;52.084;7.478;2024-01-07T07:19:48;7.23;;;6.53;;
15096;SDS011;7649;52.084;7.478;2024-01-07T07:22:16;6.30;;;5.70;;
15096;SDS011;7649;52.084;7.478;2024-01-07T07:24:45;6.80;;;6.03;;
15096;SDS011;7649;52.084;7.478;2024-01-07T07:27:15;6.33;;;5.60;;
15096;SDS011;7649;52.084;7.478;2024-01-07T07:29:44;6.80;;;5.77;;
15096;SDS011;7649;52.084;7.478;2024-01-07T07:32:13;7.90;;;6.00;;
15096;SDS011;7649;52.084;7.478;2024-01-07T07:34:41;6.93;;;6.20;;
15096;SDS011;7649;52.084;7.478;2024-01-07T07:37:09;7.03;;;6.33;;
15096;SDS011;7649;52.084;7.478;2024-01-07T07:39:38;6.17;;;5.40;;
15096;SDS011;7649;52.084;7.478;2024-01-07T07:42:06;6.57;;;5.67;;
15096;SDS011;7649;52.084;7.478;2024-01-07T07:44:38;7.00;;;5.70;;
15096;SDS011;7649;52.084;7.478;2024-01-07T07:47:06;6.73;;;6.13;;
15096;SDS011;7649;52.084;7.478;2024-01-07T07:49:37;7.87;;;7.07;;
15096;SDS011;7649;52.084;7.478;2024-01-07T07:52:07;8.57;;;6.37;;
15096;SDS011;7649;52.084;7.478;2024-01-07T07:54:36;8.57;;;7.50;;
15096;SDS011;7649;52.084;7.478;2024-01-07T07:57:05;8.00;;;6.70;;
15096;SDS011;7649;52.084;7.478;2024-01-07T07:59:33;9.77;;;7.87;;
15096;SDS011;7649;52.084;7.478;2024-01-07T08:02:03;9.97;;;6.87;;
15096;SDS011;7649;52.084;7.478;2024-01-07T08:04:32;7.47;;;6.50;;
15096;SDS011;7649;52.084;7.478;2024-01-07T08:07:00;8.33;;;6.90;;
15096;SDS011;7649;52.084;7.478;2024-01-07T08:09:28;7.57;;;6.50;;
15096;SDS011;7649;52.084;7.478;2024-01-07T08:11:57;9.20;;;7.27;;
15096;SDS011;7649;52.084;7.478;2024-01-07T08:14:26;8.17;;;6.87;;
15096;SDS011;7649;52.084;7.478;2024-01-07T08:16:55;8.07;;;6.33;;
15096;SDS011;7649;52.084;7.478;2024-01-07T08:19:25;7.40;;;6.00;;
15096;SDS011;7649;52.084;7.478;2024-01-07T08:21:53;6.50;;;5.40;;
15096;SDS011;7649;52.084;7.478;2024-01-07T08:24:23;7.27;;;5.93;;
15096;SDS011;7649;52.084;7.478;2024-01-07T08:26:53;8.00;;;5.23;;
15096;SDS011;7649;52.084;7.478;2024-01-07T08:29:21;8.43;;;5.67;;
15096;SDS011;7649;52.084;7.478;2024-01-07T08:31:50;6.47;;;4.90;;
15096;SDS011;7649;52.084;7.478;2024-01-07T08:34:18;5.63;;;4.90;;
15096;SDS011;7649;52.084;7.478;2024-01-07T08:36:49;5.23;;;4.70;;
15096;SDS011;7649;52.084;7.478;2024-01-07T08:39:20;6.00;;;5.20;;
15096;SDS011;7649;52.084;7.478;2024-01-07T08:41:48;5.53;;;4.77;;
15096;SDS011;7649;52.084;7.478;2024-01-07T08:44:17;5.77;;;4.63;;
15096;SDS011;7649;52.084;7.478;2024-01-07T08:46:46;5.17;;;4.63;;
15096;SDS011;7649;52.084;7.478;2024-01-07T08:49:15;5.77;;;4.87;;
15096;SDS011;7649;52.084;7.478;2024-01-07T08:51:44;5.10;;;4.30;;
15096;SDS011;7649;52.084;7.478;2024-01-07T08:54:13;5.67;;;4.53;;
15096;SDS011;7649;52.084;7.478;2024-01-07T08:56:43;5.27;;;4.10;;
15096;SDS011;7649;52.084;7.478;2024-01-07T08:59:12;4.50;;;3.90;;
15096;SDS011;7649;52.084;7.478;2024-01-07T09:01:40;5.83;;;4.10;;
15096;SDS011;7649;52.084;7.478;2024-01-07T09:04:09;5.20;;;4.20;;
15096;SDS011;7649;52.084;7.478;2024-01-07T09:06:37;4.17;;;3.73;;
15096;SDS011;7649;52.084;7.478;2024-01-07T09:09:07;4.20;;;3.60;;
15096;SDS011;7649;52.084;7.478;2024-01-07T09:11:37;4.13;;;3.20;;
15096;SDS011;7649;52.084;7.478;2024-01-07T09:14:06;3.90;;;3.57;;
15096;SDS011;7649;52.084;7.478;2024-01-07T09:16:34;4.20;;;3.80;;
15096;SDS011;7649;52.084;7.478;2024-01-07T09:19:03;4.13;;;3.47;;
15096;SDS011;7649;52.084;7.478;2024-01-07T09:21:31;5.00;;;3.97;;
15096;SDS011;7649;52.084;7.478;2024-01-07T09:24:00;4.40;;;3.27;;
15096;SDS011;7649;52.084;7.478;2024-01-07T09:26:28;4.60;;;3.23;;
15096;SDS011;7649;52.084;7.478;2024-01-07T09:28:58;3.90;;;3.30;;
15096;SDS011;7649;52.084;7.478;2024-01-07T09:31:27;4.47;;;3.37;;
15096;SDS011;7649;52.084;7.478;2024-01-07T09:33:56;4.87;;;3.57;;
15096;SDS011;7649;52.084;7.478;2024-01-07T09:36:24;3.63;;;3.00;;
15096;SDS011;7649;52.084;7.478;2024-01-07T09:38:56;5.00;;;3.53;;
15096;SDS011;7649;52.084;7.478;2024-01-07T09:41:28;4.23;;;3.03;;
15096;SDS011;7649;52.084;7.478;2024-01-07T09:43:57;4.43;;;3.30;;
15096;SDS011;7649;52.084;7.478;2024-01-07T09:46:28;3.67;;;2.90;;
15096;SDS011;7649;52.084;7.478;2024-01-07T09:48:58;4.23;;;3.00;;
15096;SDS011;7649;52.084;7.478;2024-01-07T09:51:26;2.63;;;2.43;;
15096;SDS011;7649;52.084;7.478;2024-01-07T09:53:57;3.80;;;3.00;;
15096;SDS011;7649;52.084;7.478;2024-01-07T09:56:27;3.43;;;2.70;;
15096;SDS011;7649;52.084;7.478;2024-01-07T09:58:58;3.23;;;2.60;;
15096;SDS011;7649;52.084;7.478;2024-01-07T10:01:42;3.43;;;2.90;;
15096;SDS011;7649;52.084;7.478;2024-01-07T10:04:13;5.80;;;4.37;;
15096;SDS011;7649;52.084;7.478;2024-01-07T10:06:42;2.83;;;2.20;;
15096;SDS011;7649;52.084;7.478;2024-01-07T10:09:12;2.80;;;2.50;;
15096;SDS011;7649;52.084;7.478;2024-01-07T10:11:40;4.17;;;2.30;;
15096;SDS011;7649;52.084;7.478;2024-01-07T10:14:11;8.27;;;3.07;;
15096;SDS011;7649;52.084;7.478;2024-01-07T10:16:45;7.43;;;3.57;;
15096;SDS011;7649;52.084;7.478;2024-01-07T10:19:17;7.03;;;2.97;;
15096;SDS011;7649;52.084;7.478;2024-01-07T10:21:58;2.77;;;2.50;;
15096;SDS011;7649;52.084;7.478;2024-01-07T10:24:31;2.43;;;2.23;;
15096;SDS011;7649;52.084;7.478;2024-01-07T10:27:04;4.17;;;2.47;;
15096;SDS011;7649;52.084;7.478;2024-01-07T10:29:33;2.67;;;2.43;;
15096;SDS011;7649;52.084;7.478;2024-01-07T10:32:03;6.67;;;2.97;;
15096;SDS011;7649;52.084;7.478;2024-01-07T10:34:33;3.97;;;2.50;;
15096;SDS011;7649;52.084;7.478;2024-01-07T10:37:02;4.70;;;2.73;;
15096;SDS011;7649;52.084;7.478;2024-01-07T10:39:32;3.17;;;2.57;;
15096;SDS011;7649;52.084;7.478;2024-01-07T10:42:01;3.30;;;2.50;;
15096;SDS011;7649;52.084;7.478;2024-01-07T10:44:30;2.43;;;2.23;;
15096;SDS011;7649;52.084;7.478;2024-01-07T10:46:59;3.50;;;2.27;;
15096;SDS011;7649;52.084;7.478;2024-01-07T10:49:29;2.97;;;2.27;;
15096;SDS011;7649;52.084;7.478;2024-01-07T10:52:02;2.60;;;2.40;;
15096;SDS011;7649;52.084;7.478;2024-01-07T10:54:34;2.53;;;2.33;;
15096;SDS011;7649;52.084;7.478;2024-01-07T10:57:04;2.60;;;2.23;;
15096;SDS011;7649;52.084;7.478;2024-01-07T10:59:35;3.43;;;2.47;;
15096;SDS011;7649;52.084;7.478;2024-01-07T11:02:04;2.40;;;2.20;;
15096;SDS011;7649;52.084;7.478;2024-01-07T11:04:37;2.57;;;2.37;;
15096;SDS011;7649;52.084;7.478;2024-01-07T11:07:09;3.30;;;2.43;;
15096;SDS011;7649;52.084;7.478;2024-01-07T11:09:43;3.10;;;2.83;;
15096;SDS011;7649;52.084;7.478;2024-01-07T11:12:16;3.57;;;3.13;;
15096;SDS011;7649;52.084;7.478;2024-01-07T11:14:45;3.27;;;2.90;;
15096;SDS011;7649;52.084;7.478;2024-01-07T11:17:39;3.50;;;3.20;;
15096;SDS011;7649;52.084;7.478;2024-01-07T11:20:16;4.23;;;2.67;;
15096;SDS011;7649;52.084;7.478;2024-01-07T11:22:47;3.47;;;2.70;;
15096;SDS011;7649;52.084;7.478;2024-01-07T11:25:28;4.73;;;2.57;;
15096;SDS011;7649;52.084;7.478;2024-01-07T11:27:57;4.37;;;2.80;;
15096;SDS011;7649;52.084;7.478;2024-01-07T11:30:26;2.70;;;2.50;;
15096;SDS011;7649;52.084;7.478;2024-01-07T11:32:56;2.77;;;2.57;;
15096;SDS011;7649;52.084;7.478;2024-01-07T11:38:13;5.63;;;3.23;;
15096;SDS011;7649;52.084;7.478;2024-01-07T11:40:42;3.10;;;2.77;;
15096;SDS011;7649;52.084;7.478;2024-01-07T11:43:11;3.23;;;2.93;;
15096;SDS011;7649;52.084;7.478;2024-01-07T11:45:39;3.40;;;3.10;;
15096;SDS011;7649;52.084;7.478;2024-01-07T11:48:08;4.20;;;3.00;;
15096;SDS011;7649;52.084;7.478;2024-01-07T11:50:36;3.57;;;3.00;;
15096;SDS011;7649;52.084;7.478;2024-01-07T11:53:05;3.50;;;3.20;;
15096;SDS011;7649;52.084;7.478;2024-01-07T11:55:35;3.70;;;2.67;;
15096;SDS011;7649;52.084;7.478;2024-01-07T11:58:04;4.13;;;2.90;;
15096;SDS011;7649;52.084;7.478;2024-01-07T12:00:33;4.50;;;3.07;;
15096;SDS011;7649;52.084;7.478;2024-01-07T12:03:02;3.93;;;3.10;;
15096;SDS011;7649;52.084;7.478;2024-01-07T12:05:30;4.57;;;3.10;;
15096;SDS011;7649;52.084;7.478;2024-01-07T12:08:00;3.40;;;3.10;;
15096;SDS011;7649;52.084;7.478;2024-01-07T12:10:29;3.33;;;3.03;;
15096;SDS011;7649;52.084;7.478;2024-01-07T12:13:00;3.40;;;3.00;;
15096;SDS011;7649;52.084;7.478;2024-01-07T12:15:29;4.37;;;3.00;;
15096;SDS011;7649;52.084;7.478;2024-01-07T12:17:59;3.10;;;2.73;;
15096;SDS011;7649;52.084;7.478;2024-01-07T12:20:29;5.27;;;3.47;;
15096;SDS011;7649;52.084;7.478;2024-01-07T12:22:57;3.00;;;2.77;;
15096;SDS011;7649;52.084;7.478;2024-01-07T12:25:33;3.43;;;2.77;;
15096;SDS011;7649;52.084;7.478;2024-01-07T12:28:03;4.00;;;2.70;;
15096;SDS011;7649;52.084;7.478;2024-01-07T12:30:35;2.57;;;2.37;;
15096;SDS011;7649;52.084;7.478;2024-01-07T12:33:05;2.90;;;2.60;;
15096;SDS011;7649;52.084;7.478;2024-01-07T12:35:34;3.43;;;2.50;;
15096;SDS011;7649;52.084;7.478;2024-01-07T12:38:02;5.30;;;3.00;;
15096;SDS011;7649;52.084;7.478;2024-01-07T12:40:33;3.77;;;2.70;;
15096;SDS011;7649;52.084;7.478;2024-01-07T12:43:04;3.43;;;2.97;;
15096;SDS011;7649;52.084;7.478;2024-01-07T12:45:34;3.80;;;2.80;;
15096;SDS011;7649;52.084;7.478;2024-01-07T12:48:02;4.03;;;2.43;;
15096;SDS011;7649;52.084;7.478;2024-01-07T12:50:31;2.60;;;2.40;;
15096;SDS011;7649;52.084;7.478;2024-01-07T12:53:00;3.10;;;2.27;;
15096;SDS011;7649;52.084;7.478;2024-01-07T12:55:30;3.43;;;2.90;;
15096;SDS011;7649;52.084;7.478;2024-01-07T12:58:00;3.00;;;2.43;;
15096;SDS011;7649;52.084;7.478;2024-01-07T13:00:32;2.40;;;1.93;;
15096;SDS011;7649;52.084;7.478;2024-01-07T13:03:02;2.23;;;1.97;;
15096;SDS011;7649;52.084;7.478;2024-01-07T13:05:33;2.67;;;2.03;;
15096;SDS011;7649;52.084;7.478;2024-01-07T13:08:02;2.33;;;2.13;;
15096;SDS011;7649;52.084;7.478;2024-01-07T13:10:30;2.83;;;2.23;;
15096;SDS011;7649;52.084;7.478;2024-01-07T13:13:00;2.57;;;2.10;;
15096;SDS011;7649;52.084;7.478;2024-01-07T13:15:39;2.47;;;2.27;;
15096;SDS011;7649;52.084;7.478;2024-01-07T13:18:09;3.10;;;2.27;;
15096;SDS011;7649;52.084;7.478;2024-01-07T13:20:39;2.93;;;2.47;;
15096;SDS011;7649;52.084;7.478;2024-01-07T13:23:07;2.47;;;2.27;;
15096;SDS011;7649;52.084;7.478;2024-01-07T13:25:36;4.53;;;3.10;;
15096;SDS011;7649;52.084;7.478;2024-01-07T13:28:05;5.00;;;2.37;;
15096;SDS011;7649;52.084;7.478;2024-01-07T13:30:39;2.90;;;2.47;;
15096;SDS011;7649;52.084;7.478;2024-01-07T13:33:09;3.70;;;2.93;;
15096;SDS011;7649;52.084;7.478;2024-01-07T13:35:37;2.80;;;2.20;;
15096;SDS011;7649;52.084;7.478;2024-01-07T13:38:07;3.27;;;2.30;;
15096;SDS011;7649;52.084;7.478;2024-01-07T13:40:36;3.83;;;2.43;;
15096;SDS011;7649;52.084;7.478;2024-01-07T13:43:05;4.27;;;2.50;;
15096;SDS011;7649;52.084;7.478;2024-01-07T13:45:33;2.93;;;2.33;;
15096;SDS011;7649;52.084;7.478;2024-01-07T13:48:05;4.87;;;2.40;;
15096;SDS011;7649;52.084;7.478;2024-01-07T13:50:34;3.27;;;2.47;;
15096;SDS011;7649;52.084;7.478;2024-01-07T13:53:04;2.83;;;2.50;;
15096;SDS011;7649;52.084;7.478;2024-01-07T13:55:33;2.90;;;2.47;;
15096;SDS011;7649;52.084;7.478;2024-01-07T13:58:02;3.23;;;2.47;;
15096;SDS011;7649;52.084;7.478;2024-01-07T14:00:30;2.87;;;2.63;;
15096;SDS011;7649;52.084;7.478;2024-01-07T14:02:59;2.90;;;2.40;;
15096;SDS011;7649;52.084;7.478;2024-01-07T14:05:30;4.60;;;2.30;;
15096;SDS011;7649;52.084;7.478;2024-01-07T14:07:59;3.27;;;2.97;;
15096;SDS011;7649;52.084;7.478;2024-01-07T14:10:27;3.80;;;2.53;;
15096;SDS011;7649;52.084;7.478;2024-01-07T14:12:56;2.80;;;2.53;;
15096;SDS011;7649;52.084;7.478;2024-01-07T14:18:53;3.63;;;2.77;;
15096;SDS011;7649;52.084;7.478;2024-01-07T14:21:23;3.03;;;2.53;;
15096;SDS011;7649;52.084;7.478;2024-01-07T14:23:53;2.80;;;2.50;;
15096;SDS011;7649;52.084;7.478;2024-01-07T14:26:21;3.10;;;2.60;;
15096;SDS011;7649;52.084;7.478;2024-01-07T14:28:50;3.97;;;2.80;;
15096;SDS011;7649;52.084;7.478;2024-01-07T14:31:38;2.83;;;2.33;;
15096;SDS011;7649;52.084;7.478;2024-01-07T14:34:07;2.60;;;2.40;;
15096;SDS011;7649;52.084;7.478;2024-01-07T14:36:40;3.17;;;2.80;;
15096;SDS011;7649;52.084;7.478;2024-01-07T14:39:10;3.43;;;2.40;;
15096;SDS011;7649;52.084;7.478;2024-01-07T14:41:40;3.10;;;2.60;;
15096;SDS011;7649;52.084;7.478;2024-01-07T14:44:09;3.67;;;2.60;;
15096;SDS011;7649;52.084;7.478;2024-01-07T14:46:40;3.40;;;2.83;;
15096;SDS011;7649;52.084;7.478;2024-01-07T14:49:09;4.90;;;3.20;;
15096;SDS011;7649;52.084;7.478;2024-01-07T14:51:37;5.53;;;3.17;;
15096;SDS011;7649;52.084;7.478;2024-01-07T14:54:07;4.87;;;3.20;;
15096;SDS011;7649;52.084;7.478;2024-01-07T14:56:35;5.10;;;2.83;;
15096;SDS011;7649;52.084;7.478;2024-01-07T14:59:04;5.50;;;2.93;;
15096;SDS011;7649;52.084;7.478;2024-01-07T15:01:32;3.90;;;2.90;;
15096;SDS011;7649;52.084;7.478;2024-01-07T15:04:02;3.23;;;2.93;;
15096;SDS011;7649;52.084;7.478;2024-01-07T15:06:36;3.87;;;2.90;;
15096;SDS011;7649;52.084;7.478;2024-01-07T15:09:08;3.83;;;2.80;;
15096;SDS011;7649;52.084;7.478;2024-01-07T15:11:38;3.80;;;3.10;;
15096;SDS011;7649;52.084;7.478;2024-01-07T15:14:08;4.17;;;3.07;;
15096;SDS011;7649;52.084;7.478;2024-01-07T15:16:36;6.27;;;3.10;;
15096;SDS011;7649;52.084;7.478;2024-01-07T15:19:05;3.37;;;3.00;;